Time;durP1;ratioP1;P1;durP2;ratioP2;P2;SDS_P1;SDS_P2;PMS_P1;PMS_P2;Temp;Humidity;BMP_temperature;BMP_pressure;BME280_temperature;BME280_humidity;BME280_pressure;Samples;Min_cycle;Max_cycle;Signal;HPM_P1;HPM_P2
2021/09/05 00:02:41;;;;;;;81.33;39.57;;;17.30;99.90;;;;;;8290619;28;20208;-79
2021/09/05 00:06:41;;;;;;;76.40;38.47;;;17.30;99.90;;;;;;8299304;28;20182;-77
2021/09/05 00:10:42;;;;;;;80.70;40.83;;;17.20;99.90;;;;;;8306375;28;20256;-78
2021/09/05 00:14:43;;;;;;;93.63;38.83;;;17.20;99.90;;;;;;8302659;28;20419;-78
2021/09/05 00:18:43;;;;;;;73.37;38.43;;;17.20;99.90;;;;;;8305203;28;20615;-79
2021/09/05 00:22:47;;;;;;;70.10;34.43;;;17.10;99.90;;;;;;8286873;28;20211;-79
2021/09/05 00:26:48;;;;;;;105.10;42.03;;;17.10;99.90;;;;;;8295714;28;20179;-78
2021/09/05 00:30:48;;;;;;;83.50;36.57;;;17.00;99.90;;;;;;8293283;28;20449;-80
2021/09/05 00:34:49;;;;;;;99.43;41.97;;;17.00;99.90;;;;;;8279726;28;20219;-78
2021/09/05 00:38:49;;;;;;;74.67;37.67;;;17.00;99.90;;;;;;8304031;28;20214;-79
2021/09/05 00:42:50;;;;;;;101.80;45.83;;;16.90;99.90;;;;;;8289944;28;20209;-80
2021/09/05 00:46:51;;;;;;;95.93;42.17;;;16.90;99.90;;;;;;8296279;28;20261;-79
2021/09/05 00:50:52;;;;;;;110.63;44.97;;;16.80;99.90;;;;;;8293702;28;20251;-79
2021/09/05 00:54:52;;;;;;;97.23;39.90;;;16.80;99.90;;;;;;8271385;28;20527;-78
2021/09/05 00:58:54;;;;;;;80.10;38.43;;;16.80;99.90;;;;;;8307003;28;20192;-79
2021/09/05 01:03:08;;;;;;;95.63;43.90;;;16.70;99.90;;;;;;8415267;23;20266;-92
2021/09/05 01:07:14;;;;;;;88.67;41.20;;;16.70;99.90;;;;;;8285623;28;20436;-95
2021/09/05 01:11:16;;;;;;;106.57;41.80;;;16.70;99.90;;;;;;8284984;28;20509;-94
2021/09/05 01:15:17;;;;;;;120.10;49.47;;;16.70;99.90;;;;;;8308667;28;20447;-94
2021/09/05 01:19:41;;;;;;;114.80;49.97;;;16.60;99.90;;;;;;8289119;28;20800;-93
2021/09/05 01:23:52;;;;;;;92.53;41.80;;;16.60;99.90;;;;;;8286624;28;20440;-92
2021/09/05 01:28:08;;;;;;;109.97;50.50;;;16.60;99.90;;;;;;8294824;28;20458;-93
2021/09/05 01:32:31;;;;;;;104.00;48.47;;;16.60;99.90;;;;;;8283874;28;20482;-94
2021/09/05 01:36:37;;;;;;;102.80;42.70;;;16.60;99.90;;;;;;8287691;28;20424;-95
2021/09/05 01:40:44;;;;;;;85.43;38.40;;;16.60;99.90;;;;;;8280405;28;20520;-93
2021/09/05 01:44:47;;;;;;;69.50;37.90;;;16.60;99.90;;;;;;8274617;28;20533;-95
2021/09/05 01:48:48;;;;;;;83.70;39.63;;;16.60;99.90;;;;;;8291732;28;20461;-93
2021/09/05 01:52:49;;;;;;;82.30;39.23;;;16.60;99.90;;;;;;8291666;28;20483;-94
2021/09/05 01:56:50;;;;;;;81.33;37.27;;;16.50;99.90;;;;;;8292252;28;20597;-94
2021/09/05 02:00:55;;;;;;;78.43;36.43;;;16.50;99.90;;;;;;8284555;28;20343;-93
2021/09/05 02:05:17;;;;;;;77.30;36.07;;;16.40;99.90;;;;;;8290905;28;20247;-92
2021/09/05 02:09:44;;;;;;;78.33;35.83;;;16.40;99.90;;;;;;8288779;28;20481;-93
2021/09/05 02:13:55;;;;;;;70.93;34.23;;;16.30;99.90;;;;;;8293493;28;20450;-93
2021/09/05 02:18:03;;;;;;;76.13;32.23;;;16.20;99.90;;;;;;8277940;28;20704;-94
2021/09/05 02:22:07;;;;;;;73.30;32.67;;;16.20;99.90;;;;;;8281080;28;20473;-94
2021/09/05 02:26:12;;;;;;;74.43;34.40;;;16.10;99.90;;;;;;8285119;28;20548;-93
2021/09/05 02:30:36;;;;;;;84.53;36.70;;;16.00;99.90;;;;;;8288580;28;20184;-95
2021/09/05 02:34:44;;;;;;;76.10;35.90;;;16.00;99.90;;;;;;8266830;28;20823;-95
2021/09/05 02:39:30;;;;;;;69.67;32.10;;;16.00;99.90;;;;;;8297021;28;20471;-93
2021/09/05 02:44:13;;;;;;;66.07;30.40;;;16.00;99.90;;;;;;8282814;28;20460;-93
2021/09/05 02:48:20;;;;;;;72.20;34.30;;;15.90;99.90;;;;;;8286700;28;20440;-94
2021/09/05 02:52:29;;;;;;;51.97;28.10;;;15.90;99.90;;;;;;8277670;28;20440;-93
2021/09/05 02:56:47;;;;;;;65.97;32.43;;;15.90;99.90;;;;;;8288451;28;20854;-93
2021/09/05 03:01:00;;;;;;;64.00;29.80;;;15.90;99.90;;;;;;8285997;28;20489;-94
2021/09/05 03:05:09;;;;;;;63.60;28.53;;;15.90;99.90;;;;;;8279208;28;20492;-94
2021/09/05 03:09:20;;;;;;;68.80;29.93;;;15.80;99.90;;;;;;8274603;28;20451;-92
2021/09/05 03:13:25;;;;;;;55.03;28.63;;;15.70;99.90;;;;;;8292481;28;20499;-93
2021/09/05 03:17:33;;;;;;;54.43;29.57;;;15.70;99.90;;;;;;8285322;28;20487;-94
2021/09/05 03:21:54;;;;;;;57.30;27.50;;;15.70;99.90;;;;;;8281500;28;20521;-94
2021/09/05 03:25:56;;;;;;;68.30;28.43;;;15.60;99.90;;;;;;8282726;28;20495;-92
2021/09/05 03:29:57;;;;;;;53.83;26.30;;;15.60;99.90;;;;;;8308321;28;20455;-94
2021/09/05 03:34:01;;;;;;;58.93;28.07;;;15.50;99.90;;;;;;8284729;28;20467;-94
2021/09/05 03:38:08;;;;;;;61.10;28.33;;;15.50;99.90;;;;;;8289082;28;20546;-92
2021/09/05 03:42:31;;;;;;;58.33;28.57;;;15.50;99.90;;;;;;8287292;28;20479;-92
2021/09/05 03:46:37;;;;;;;57.17;28.60;;;15.40;99.90;;;;;;8291593;28;20440;-94
2021/09/05 03:50:41;;;;;;;54.13;28.87;;;15.40;99.90;;;;;;8270159;28;20465;-94
2021/09/05 04:00:05;;;;;;;53.50;26.60;;;15.30;99.90;;;;;;8284723;28;20447;-92
2021/09/05 04:04:55;;;;;;;55.03;27.00;;;15.20;99.90;;;;;;8300874;28;20471;-92
2021/09/05 04:09:00;;;;;;;53.87;26.27;;;15.20;99.90;;;;;;8325507;28;20451;-94
2021/09/05 04:13:02;;;;;;;52.50;27.30;;;15.10;99.90;;;;;;8309721;28;20496;-95
2021/09/05 04:17:12;;;;;;;46.23;26.37;;;15.10;99.90;;;;;;8312345;28;20438;-95
2021/09/05 04:21:20;;;;;;;58.97;28.10;;;15.10;99.90;;;;;;8326036;28;20454;-92
2021/09/05 04:25:22;;;;;;;41.80;24.80;;;15.10;99.90;;;;;;8312080;28;20466;-95
2021/09/05 04:29:23;;;;;;;39.90;24.77;;;15.00;99.90;;;;;;8308590;28;20450;-94
2021/09/05 04:33:30;;;;;;;55.97;28.70;;;15.00;99.90;;;;;;8310989;28;20507;-94
2021/09/05 04:37:38;;;;;;;72.07;31.10;;;14.90;99.90;;;;;;8277503;28;21844;-93
2021/09/05 04:41:49;;;;;;;60.07;30.40;;;14.90;99.90;;;;;;8310195;28;20483;-95
2021/09/05 04:45:50;;;;;;;52.70;26.60;;;14.90;99.90;;;;;;8291432;28;20451;-94
2021/09/05 04:49:52;;;;;;;75.03;31.63;;;14.80;99.90;;;;;;8313581;28;20443;-94
2021/09/05 04:54:00;;;;;;;69.60;32.60;;;14.80;99.90;;;;;;8311813;28;20443;-95
2021/09/05 04:58:13;;;;;;;55.00;27.80;;;14.70;99.90;;;;;;8293241;28;20426;-92
2021/09/05 05:02:19;;;;;;;57.40;27.77;;;14.70;99.90;;;;;;8324950;28;20462;-93
2021/09/05 05:06:23;;;;;;;61.20;27.73;;;14.70;99.90;;;;;;8318918;28;20485;-95
2021/09/05 05:10:54;;;;;;;58.57;27.87;;;14.70;99.90;;;;;;8278863;28;20447;-93
2021/09/05 05:15:14;;;;;;;51.20;28.20;;;14.70;99.90;;;;;;8318560;28;20494;-92
2021/09/05 05:19:16;;;;;;;52.90;24.53;;;14.70;99.90;;;;;;8312210;28;20447;-95
2021/09/05 05:23:18;;;;;;;47.77;24.33;;;14.70;99.90;;;;;;8312267;28;20681;-95
2021/09/05 05:27:24;;;;;;;53.13;27.20;;;14.80;99.90;;;;;;8292244;28;20192;-94
2021/09/05 05:31:33;;;;;;;47.00;26.70;;;14.80;99.90;;;;;;8310409;28;20534;-94
2021/09/05 05:36:11;;;;;;;;;;;;;;;;;;;;;
2021/09/05 05:40:13;;;;;;;57.30;28.90;;;15.00;99.90;;;;;;8321935;28;20506;-94
2021/09/05 05:44:36;;;;;;;51.53;26.53;;;15.00;99.90;;;;;;8296250;28;20439;-93
2021/09/05 05:48:36;;;;;;;48.63;24.03;;;15.10;99.90;;;;;;8304243;23;20525;-79
2021/09/05 05:52:37;;;;;;;39.00;23.17;;;15.10;99.90;;;;;;8293939;28;20776;-80
2021/09/05 05:56:38;;;;;;;35.13;20.57;;;15.20;99.90;;;;;;8292979;28;20723;-80
2021/09/05 06:00:39;;;;;;;40.27;25.20;;;15.30;99.90;;;;;;8273430;28;20473;-79
2021/09/05 06:04:39;;;;;;;34.17;20.77;;;15.30;99.90;;;;;;8283393;28;20189;-79
2021/09/05 06:08:40;;;;;;;34.30;21.83;;;15.40;99.90;;;;;;8278822;28;20192;-79
2021/09/05 06:12:41;;;;;;;37.40;23.70;;;15.50;99.90;;;;;;8287787;28;20686;-79
2021/09/05 06:16:42;;;;;;;40.87;23.77;;;15.70;99.90;;;;;;8292549;28;20442;-78
2021/09/05 06:20:42;;;;;;;34.87;22.73;;;15.70;99.90;;;;;;8286994;28;20644;-79
2021/09/05 06:24:43;;;;;;;36.87;22.37;;;15.90;99.90;;;;;;8279298;28;20184;-80
2021/09/05 06:28:44;;;;;;;40.23;22.70;;;16.10;99.90;;;;;;8290236;28;20726;-78
2021/09/05 06:32:44;;;;;;;32.27;21.57;;;16.20;99.90;;;;;;8286758;28;20655;-79
2021/09/05 06:36:45;;;;;;;30.43;19.37;;;16.40;99.90;;;;;;8290958;28;20213;-79
2021/09/05 06:40:45;;;;;;;26.97;18.27;;;16.50;99.90;;;;;;8299770;28;20220;-78
2021/09/05 06:44:46;;;;;;;23.93;18.23;;;16.70;99.90;;;;;;8284093;28;20184;-77
2021/09/05 06:48:47;;;;;;;27.40;18.40;;;16.90;99.90;;;;;;8261484;28;20324;-77
2021/09/05 06:52:47;;;;;;;26.07;17.63;;;17.10;99.90;;;;;;8255350;28;20195;-77
2021/09/05 06:56:48;;;;;;;26.00;17.50;;;17.20;99.90;;;;;;8277300;28;20639;-79
2021/09/05 07:00:48;;;;;;;24.67;17.90;;;17.40;99.90;;;;;;8280400;28;20345;-80
2021/09/05 07:04:49;;;;;;;26.00;18.43;;;17.50;99.90;;;;;;8288728;28;20194;-79
2021/09/05 07:08:50;;;;;;;28.13;17.77;;;17.70;99.90;;;;;;8288822;28;20184;-78
2021/09/05 07:12:50;;;;;;;22.60;14.80;;;17.90;99.90;;;;;;8268144;28;20208;-80
2021/09/05 07:16:51;;;;;;;20.37;15.30;;;18.20;99.90;;;;;;8290150;28;20191;-79
2021/09/05 07:20:52;;;;;;;20.70;15.47;;;18.40;99.90;;;;;;8297278;28;20299;-79
2021/09/05 07:24:52;;;;;;;25.70;15.40;;;18.60;99.90;;;;;;8278452;28;20739;-80
2021/09/05 07:28:53;;;;;;;16.93;13.50;;;18.90;99.90;;;;;;8280862;28;20212;-80
2021/09/05 07:32:53;;;;;;;18.60;14.17;;;19.20;99.90;;;;;;8279565;28;20199;-79
2021/09/05 07:36:54;;;;;;;21.37;14.20;;;19.40;99.90;;;;;;8273435;28;20188;-81
2021/09/05 07:40:54;;;;;;;15.40;12.50;;;19.70;99.90;;;;;;8281477;28;20236;-79
2021/09/05 07:44:57;;;;;;;20.57;14.50;;;19.90;99.90;;;;;;8271017;28;20680;-80
2021/09/05 07:48:58;;;;;;;19.50;14.10;;;20.10;99.90;;;;;;8290638;28;20283;-81
2021/09/05 07:52:59;;;;;;;20.00;14.00;;;20.30;99.90;;;;;;8277896;28;20478;-79
2021/09/05 07:56:59;;;;;;;16.70;12.73;;;20.60;99.90;;;;;;8291179;28;20188;-80
2021/09/05 08:01:00;;;;;;;20.60;12.97;;;20.80;99.90;;;;;;8268042;28;20209;-80
2021/09/05 08:05:00;;;;;;;19.30;12.60;;;21.00;99.90;;;;;;8287466;28;20213;-80
2021/09/05 08:09:01;;;;;;;14.93;12.80;;;21.30;99.90;;;;;;8267366;28;20199;-80
2021/09/05 08:13:02;;;;;;;15.50;12.87;;;21.50;99.90;;;;;;8279937;28;20192;-79
2021/09/05 08:17:02;;;;;;;17.73;13.00;;;21.70;99.90;;;;;;8287974;28;20236;-79
2021/09/05 08:21:06;;;;;;;22.93;14.00;;;21.90;99.50;;;;;;8281048;28;20208;-80
2021/09/05 08:25:08;;;;;;;16.43;11.97;;;22.10;99.20;;;;;;8275785;28;20184;-80
2021/09/05 08:29:10;;;;;;;16.67;12.40;;;22.30;98.70;;;;;;8277757;28;20436;-80
2021/09/05 08:33:12;;;;;;;21.30;15.30;;;22.60;98.70;;;;;;8283220;28;20417;-79
2021/09/05 08:37:13;;;;;;;19.53;14.03;;;22.80;98.30;;;;;;8267214;28;20449;-82
2021/09/05 08:41:14;;;;;;;20.50;13.80;;;22.90;98.00;;;;;;8284716;28;20929;-79
2021/09/05 08:45:14;;;;;;;27.70;14.10;;;23.00;97.70;;;;;;8283526;28;20180;-82
2021/09/05 08:49:17;;;;;;;18.50;13.73;;;23.20;97.70;;;;;;8299875;28;20537;-81
2021/09/05 08:53:19;;;;;;;16.90;12.70;;;23.40;97.30;;;;;;8270052;28;20177;-80
2021/09/05 08:57:20;;;;;;;20.73;12.50;;;23.50;97.00;;;;;;8263079;28;20426;-82
2021/09/05 09:01:27;;;;;;;19.60;11.80;;;23.80;96.70;;;;;;8268043;28;21015;-80
2021/09/05 09:05:33;;;;;;;15.50;12.40;;;24.20;96.30;;;;;;8288454;28;20274;-82
